createdAt,value
2023-05-09T00:00:59.582Z,13.96
2023-05-09T00:04:01.349Z,13.94
2023-05-09T00:07:03.109Z,13.96
2023-05-09T00:10:05.031Z,13.97
2023-05-09T00:13:08.269Z,13.82
2023-05-09T00:16:11.864Z,13.80
2023-05-09T00:19:16.544Z,13.82
2023-05-09T00:22:23.555Z,13.87
2023-05-09T00:25:44.504Z,13.86
2023-05-09T00:28:48.394Z,13.92
2023-05-09T00:31:50.059Z,13.93
2023-05-09T00:34:51.799Z,13.94
2023-05-09T00:37:57.457Z,13.81
2023-05-09T00:40:59.095Z,13.75
2023-05-09T00:44:02.137Z,13.60
2023-05-09T00:47:03.817Z,13.53
2023-05-09T00:50:47.151Z,13.54
2023-05-09T00:53:51.687Z,13.48
2023-05-09T00:56:53.433Z,13.57
2023-05-09T00:59:57.775Z,13.63
2023-05-09T01:02:59.592Z,13.62
2023-05-09T01:06:11.211Z,13.70
2023-05-09T01:09:19.930Z,13.68
2023-05-09T01:12:24.536Z,13.64
2023-05-09T01:15:34.559Z,13.68
2023-05-09T01:18:39.206Z,13.70
2023-05-09T01:21:43.459Z,13.71
2023-05-09T01:25:01.601Z,13.81
2023-05-09T01:28:21.752Z,13.79
2023-05-09T01:31:32.733Z,13.81
2023-05-09T01:34:37.037Z,13.88
2023-05-09T01:37:39.798Z,13.84
2023-05-09T01:40:43.053Z,13.87
2023-05-09T01:43:45.796Z,13.78
2023-05-09T01:46:47.593Z,13.89
2023-05-09T01:49:49.234Z,13.93
2023-05-09T01:52:52.153Z,13.98
2023-05-09T01:55:56.066Z,14.02
2023-05-09T01:58:57.692Z,14.13
2023-05-09T02:01:59.334Z,13.97
2023-05-09T02:05:00.889Z,14.00
2023-05-09T02:08:02.518Z,13.99
2023-05-09T02:11:04.244Z,13.91
2023-05-09T02:14:06.616Z,13.85
2023-05-09T02:17:09.743Z,13.85
2023-05-09T02:20:13.743Z,13.81
2023-05-09T02:23:16.946Z,13.89
2023-05-09T02:26:19.653Z,13.78
2023-05-09T02:29:21.549Z,13.71
2023-05-09T02:32:25.883Z,13.64
2023-05-09T02:35:29.681Z,13.85
2023-05-09T02:38:50.690Z,13.96
2023-05-09T02:41:52.419Z,13.95
2023-05-09T02:44:56.394Z,13.99
2023-05-09T02:48:06.892Z,13.88
2023-05-09T02:51:15.299Z,13.91
2023-05-09T02:54:22.425Z,13.79
2023-05-09T02:57:25.339Z,13.82
2023-05-09T03:00:27.010Z,13.69
2023-05-09T03:03:33.460Z,13.79
2023-05-09T03:06:49.523Z,13.89
2023-05-09T03:09:57.900Z,13.96
2023-05-09T03:13:05.299Z,13.96
2023-05-09T03:16:13.885Z,14.00
2023-05-09T03:19:25.058Z,13.98
2023-05-09T03:22:29.197Z,13.94
2023-05-09T03:25:33.629Z,13.80
2023-05-09T03:28:39.563Z,13.95
2023-05-09T03:31:48.449Z,14.03
2023-05-09T03:34:59.911Z,13.95
2023-05-09T03:38:10.692Z,13.72
2023-05-09T03:41:20.278Z,13.74
2023-05-09T03:44:24.453Z,13.77
2023-05-09T03:47:26.150Z,13.43
2023-05-09T03:50:33.839Z,13.43
2023-05-09T03:53:40.675Z,13.73
2023-05-09T03:56:44.865Z,13.63
2023-05-09T03:59:51.159Z,13.75
2023-05-09T04:02:59.468Z,13.82
2023-05-09T04:06:04.744Z,13.99
2023-05-09T04:09:20.992Z,14.01
2023-05-09T04:12:32.157Z,14.08
2023-05-09T04:15:45.639Z,14.08
2023-05-09T04:18:55.222Z,14.02
2023-05-09T04:22:05.573Z,14.09
2023-05-09T04:25:13.980Z,14.13
2023-05-09T04:28:50.686Z,14.16
2023-05-09T04:32:08.895Z,14.08
2023-05-09T04:39:45.725Z,14.16
2023-05-09T04:43:37.922Z,14.19
2023-05-09T04:47:12.068Z,14.24
2023-05-09T04:50:47.124Z,14.31
2023-05-09T04:54:25.344Z,14.42
2023-05-09T04:57:37.049Z,14.61
2023-05-09T05:04:45.114Z,14.60
2023-05-09T05:07:52.377Z,14.55
2023-05-09T05:30:35.882Z,14.41
2023-05-09T05:33:41.845Z,14.61
2023-05-09T05:36:48.110Z,14.59
2023-05-09T05:39:51.726Z,14.90
2023-05-09T05:42:58.075Z,15.00
2023-05-09T05:45:59.746Z,15.09
2023-05-09T05:49:01.500Z,15.01
2023-05-09T05:52:10.260Z,15.21
2023-05-09T05:55:12.362Z,15.22
2023-05-09T05:58:18.128Z,15.27
2023-05-09T06:01:20.071Z,15.38
2023-05-09T06:04:23.452Z,15.43
2023-05-09T06:07:25.412Z,15.56
2023-05-09T06:13:46.043Z,15.11
2023-05-09T06:16:56.547Z,15.06
2023-05-09T06:19:58.083Z,15.06
2023-05-09T06:23:01.294Z,15.03
2023-05-09T06:26:05.930Z,15.14
2023-05-09T06:29:08.117Z,15.26
2023-05-09T06:32:09.748Z,15.23
2023-05-09T06:35:11.892Z,15.26
2023-05-09T06:38:13.592Z,15.59
2023-05-09T06:41:15.112Z,15.68
2023-05-09T06:44:16.813Z,15.90
2023-05-09T06:47:18.422Z,15.79
2023-05-09T06:50:20.002Z,15.80
2023-05-09T06:53:21.932Z,16.03
2023-05-09T06:56:24.877Z,16.09
2023-05-09T06:59:26.966Z,16.05
2023-05-09T07:02:28.489Z,16.15
2023-05-09T07:05:30.240Z,16.24
2023-05-09T07:11:47.648Z,16.40
2023-05-09T07:14:49.503Z,16.53
2023-05-09T07:17:51.243Z,16.74
2023-05-09T07:20:55.073Z,16.88
2023-05-09T07:23:56.524Z,17.00
2023-05-09T07:26:58.147Z,17.17
2023-05-09T07:29:59.910Z,17.35
2023-05-09T07:33:04.384Z,17.53
2023-05-09T07:36:06.123Z,17.63
2023-05-09T07:42:23.637Z,17.83
2023-05-09T07:45:25.287Z,17.77
2023-05-09T07:48:27.090Z,17.88
2023-05-09T07:51:28.669Z,17.08
2023-05-09T07:54:30.223Z,17.23
2023-05-09T07:57:34.618Z,17.70
2023-05-09T08:00:37.440Z,17.67
2023-05-09T08:03:44.240Z,17.59
2023-05-09T08:06:45.949Z,18.20
2023-05-09T08:09:49.899Z,18.39
2023-05-09T08:12:54.178Z,18.59
2023-05-09T08:15:55.963Z,18.49
2023-05-09T08:19:00.914Z,18.07
2023-05-09T08:22:11.193Z,18.42
2023-05-09T08:25:15.568Z,18.38
2023-05-09T08:28:22.752Z,18.38
2023-05-09T08:31:27.490Z,18.37
2023-05-09T08:34:34.641Z,18.49
2023-05-09T08:37:38.157Z,18.51
2023-05-09T08:40:42.375Z,18.70
2023-05-09T08:44:02.195Z,18.87
2023-05-09T08:47:33.941Z,19.29
2023-05-09T08:50:35.642Z,19.51
2023-05-09T08:53:37.361Z,19.84
2023-05-09T08:56:39.038Z,19.86
2023-05-09T08:59:40.750Z,19.59
2023-05-09T09:02:47.544Z,20.14
2023-05-09T09:05:51.830Z,19.74
2023-05-09T09:08:55.405Z,19.58
2023-05-09T09:12:04.565Z,20.02
2023-05-09T09:15:16.374Z,19.74
2023-05-09T09:18:27.452Z,19.39
2023-05-09T09:21:32.258Z,19.95
2023-05-09T09:24:45.931Z,20.19
2023-05-09T09:27:53.628Z,20.06
2023-05-09T09:31:17.113Z,20.49
2023-05-09T09:34:22.606Z,20.25
2023-05-09T09:37:26.537Z,20.30
2023-05-09T09:40:28.720Z,20.38
2023-05-09T09:43:36.936Z,20.32
2023-05-09T09:47:14.605Z,20.35
2023-05-09T09:50:35.547Z,19.56
2023-05-09T09:53:44.670Z,19.65
2023-05-09T09:57:01.738Z,19.36
2023-05-09T10:00:04.981Z,19.57
2023-05-09T10:03:31.746Z,19.99
2023-05-09T10:06:49.201Z,19.83
2023-05-09T10:09:59.785Z,19.49
2023-05-09T10:16:43.721Z,20.34
2023-05-09T10:23:18.003Z,20.74
2023-05-09T10:26:34.472Z,19.44
2023-05-09T10:29:43.174Z,20.45
2023-05-09T10:32:55.181Z,20.14
2023-05-09T10:35:56.855Z,19.32
2023-05-09T10:38:58.417Z,18.90
2023-05-09T10:41:59.892Z,18.45
2023-05-09T10:45:01.944Z,18.00
2023-05-09T10:48:09.000Z,17.93
2023-05-09T10:51:13.222Z,17.86
2023-05-09T10:54:15.732Z,17.86
2023-05-09T10:57:18.415Z,17.94
2023-05-09T11:00:28.231Z,17.85
2023-05-09T11:03:32.358Z,18.00
2023-05-09T11:06:49.197Z,17.92
2023-05-09T11:10:11.387Z,17.76
2023-05-09T11:13:12.955Z,17.76
2023-05-09T11:16:21.258Z,18.00
2023-05-09T11:19:44.836Z,18.06
2023-05-09T11:22:54.444Z,18.44
2023-05-09T11:26:06.563Z,18.66
2023-05-09T11:29:13.338Z,19.02
2023-05-09T11:39:13.885Z,19.25
2023-05-09T11:47:09.580Z,19.62
2023-05-09T11:50:57.261Z,19.86
2023-05-09T12:06:12.803Z,20.02
2023-05-09T12:09:25.848Z,20.20
2023-05-09T12:12:42.513Z,20.34
2023-05-09T12:16:03.846Z,20.28
2023-05-09T12:22:23.704Z,20.80
2023-05-09T12:25:49.303Z,20.96
2023-05-09T12:32:27.018Z,21.25
2023-05-09T12:35:28.816Z,20.87
2023-05-09T12:38:38.293Z,20.96
2023-05-09T12:42:01.074Z,20.92
2023-05-09T12:45:03.503Z,21.17
2023-05-09T12:48:09.277Z,21.20
2023-05-09T12:51:21.082Z,21.30
2023-05-09T12:54:23.679Z,21.24
2023-05-09T12:57:30.758Z,21.10
2023-05-09T13:00:48.845Z,20.79
2023-05-09T13:03:53.885Z,20.98
2023-05-09T13:06:55.973Z,20.77
2023-05-09T13:10:06.367Z,21.05
2023-05-09T13:13:14.986Z,20.88
2023-05-09T13:16:20.859Z,20.76
2023-05-09T13:19:27.386Z,20.58
2023-05-09T13:22:36.258Z,20.76
2023-05-09T13:25:37.900Z,20.89
2023-05-09T13:28:42.241Z,20.71
2023-05-09T13:31:52.305Z,20.69
2023-05-09T13:34:56.424Z,20.62
2023-05-09T13:38:03.483Z,20.82
2023-05-09T13:41:05.023Z,20.37
2023-05-09T13:44:09.055Z,20.85
2023-05-09T13:47:38.003Z,21.12
2023-05-09T13:53:52.762Z,20.29
2023-05-09T13:56:54.247Z,19.95
2023-05-09T13:59:55.777Z,19.69
2023-05-09T14:02:57.311Z,19.81
2023-05-09T14:05:58.840Z,19.92
2023-05-09T14:09:00.514Z,19.81
2023-05-09T14:12:02.124Z,20.13
2023-05-09T14:15:06.487Z,20.25
2023-05-09T14:18:08.186Z,19.96
2023-05-09T14:21:12.672Z,19.88
2023-05-09T14:24:16.055Z,19.86
2023-05-09T14:27:20.023Z,19.56
2023-05-09T14:30:22.666Z,19.67
2023-05-09T14:33:24.282Z,19.60
2023-05-09T14:36:33.807Z,19.72
2023-05-09T14:39:37.822Z,19.71
2023-05-09T14:43:13.206Z,19.76
2023-05-09T14:46:17.799Z,19.72
2023-05-09T14:49:25.581Z,19.80
2023-05-09T14:52:32.436Z,19.71
2023-05-09T14:55:36.441Z,19.58
2023-05-09T14:58:38.131Z,19.60
2023-05-09T15:01:39.807Z,19.73
2023-05-09T15:04:43.874Z,19.62
2023-05-09T15:07:47.526Z,19.33
2023-05-09T15:10:50.979Z,19.25
2023-05-09T15:14:01.719Z,19.27
2023-05-09T15:17:05.602Z,19.23
2023-05-09T15:20:13.412Z,19.19
2023-05-09T15:23:21.798Z,19.01
2023-05-09T15:26:34.882Z,19.18
2023-05-09T15:29:40.012Z,19.15
2023-05-09T15:32:47.385Z,19.05
2023-05-09T15:36:25.684Z,18.92
2023-05-09T15:43:09.381Z,18.88
2023-05-09T15:46:18.840Z,18.49
2023-05-09T15:49:22.916Z,18.40
2023-05-09T15:52:26.780Z,17.53
2023-05-09T15:59:58.095Z,16.15
2023-05-09T16:07:59.228Z,16.62
2023-05-09T17:03:38.258Z,15.78
2023-05-09T17:11:35.813Z,15.67
2023-05-09T17:18:35.926Z,15.63
2023-05-09T17:37:51.543Z,15.66
2023-05-09T17:58:01.918Z,15.12
2023-05-09T18:01:34.183Z,15.23
2023-05-09T18:12:37.768Z,15.00
2023-05-09T18:16:02.168Z,14.95
2023-05-09T18:44:27.666Z,14.87
2023-05-09T18:47:49.454Z,14.47
2023-05-09T21:06:50.432Z,13.32
2023-05-09T21:10:07.230Z,13.67
2023-05-09T22:13:54.947Z,13.23
2023-05-09T22:16:57.565Z,13.06
2023-05-09T22:19:59.034Z,13.13
2023-05-09T22:23:00.884Z,13.14
2023-05-09T22:26:02.515Z,13.02
2023-05-09T22:29:06.228Z,13.14
2023-05-09T22:32:08.380Z,13.19
2023-05-09T22:35:10.188Z,12.85
2023-05-09T22:38:11.716Z,12.77
2023-05-09T22:41:13.855Z,12.83
2023-05-09T22:44:15.317Z,12.76
2023-05-09T22:47:16.769Z,12.76
2023-05-09T22:50:18.420Z,12.78
2023-05-09T22:53:32.909Z,12.72
2023-05-09T22:56:34.555Z,12.67
2023-05-09T22:59:37.061Z,12.57
2023-05-09T23:02:38.699Z,12.61
2023-05-09T23:05:50.382Z,12.68
2023-05-09T23:08:56.846Z,12.53
2023-05-09T23:11:59.594Z,12.52
2023-05-09T23:15:01.128Z,12.44
2023-05-09T23:18:08.171Z,12.26
2023-05-09T23:21:10.021Z,12.40
2023-05-09T23:24:11.553Z,12.32
2023-05-09T23:27:13.071Z,12.34
2023-05-09T23:30:14.772Z,12.16
2023-05-09T23:33:16.459Z,12.28
2023-05-09T23:36:17.996Z,12.38
2023-05-09T23:39:19.418Z,12.26
2023-05-09T23:42:20.866Z,12.26
2023-05-09T23:45:25.668Z,12.26
2023-05-09T23:48:29.257Z,12.34
2023-05-09T23:51:30.684Z,12.30
2023-05-09T23:57:55.601Z,12.17
